sensor_id;sensor_type;location;lat;lon;timestamp;pressure;altitude;pressure_sealevel;temperature;humidity
22181;BME280;11256;50.830;12.834;2023-12-20T00:02:10;97201.25;;;6.23;73.45
22181;BME280;11256;50.830;12.834;2023-12-20T00:07:11;97213.66;;;6.34;74.08
22181;BME280;11256;50.830;12.834;2023-12-20T00:12:11;97201.81;;;6.30;74.04
22181;BME280;11256;50.830;12.834;2023-12-20T00:17:11;97213.66;;;6.34;73.56
22181;BME280;11256;50.830;12.834;2023-12-20T00:22:12;97199.66;;;6.27;73.99
22181;BME280;11256;50.830;12.834;2023-12-20T00:27:12;97205.06;;;6.32;74.49
22181;BME280;11256;50.830;12.834;2023-12-20T00:32:12;97183.50;;;6.22;73.77
22181;BME280;11256;50.830;12.834;2023-12-20T00:37:13;97205.03;;;6.27;73.87
22181;BME280;11256;50.830;12.834;2023-12-20T00:42:13;97187.81;;;6.28;74.37
22181;BME280;11256;50.830;12.834;2023-12-20T00:47:13;97176.22;;;6.17;73.98
22181;BME280;11256;50.830;12.834;2023-12-20T00:52:14;97184.06;;;6.29;74.29
22181;BME280;11256;50.830;12.834;2023-12-20T00:57:14;97169.22;;;6.16;74.64
22181;BME280;11256;50.830;12.834;2023-12-20T01:02:15;97175.94;;;6.19;73.73
22181;BME280;11256;50.830;12.834;2023-12-20T01:07:15;97180.25;;;6.15;74.09
22181;BME280;11256;50.830;12.834;2023-12-20T01:12:15;97181.34;;;6.19;74.12
22181;BME280;11256;50.830;12.834;2023-12-20T01:17:16;97180.81;;;6.17;73.97
22181;BME280;11256;50.830;12.834;2023-12-20T01:22:16;97156.31;;;6.08;74.00
22181;BME280;11256;50.830;12.834;2023-12-20T01:27:16;97185.09;;;6.13;73.87
22181;BME280;11256;50.830;12.834;2023-12-20T01:32:17;97186.19;;;6.17;73.85
22181;BME280;11256;50.830;12.834;2023-12-20T01:37:17;97163.03;;;6.06;73.83
22181;BME280;11256;50.830;12.834;2023-12-20T01:42:18;97165.72;;;6.11;74.37
22181;BME280;11256;50.830;12.834;2023-12-20T01:47:18;97154.69;;;6.07;74.44
22181;BME280;11256;50.830;12.834;2023-12-20T01:52:20;97152.81;;;6.13;74.06
22181;BME280;11256;50.830;12.834;2023-12-20T01:57:21;97157.66;;;6.11;73.92
22181;BME280;11256;50.830;12.834;2023-12-20T02:02:21;97143.09;;;6.02;74.32
22181;BME280;11256;50.830;12.834;2023-12-20T02:07:22;97113.47;;;5.82;74.14
22181;BME280;11256;50.830;12.834;2023-12-20T02:12:22;97117.81;;;5.98;74.43
22181;BME280;11256;50.830;12.834;2023-12-20T02:17:23;97122.63;;;5.91;74.44
22181;BME280;11256;50.830;12.834;2023-12-20T02:22:23;97139.03;;;5.94;74.17
22181;BME280;11256;50.830;12.834;2023-12-20T02:27:24;97132.88;;;5.94;74.37
22181;BME280;11256;50.830;12.834;2023-12-20T02:32:25;97084.88;;;5.66;74.31
22181;BME280;11256;50.830;12.834;2023-12-20T02:37:28;97132.06;;;5.93;74.01
22181;BME280;11256;50.830;12.834;2023-12-20T02:42:29;97111.34;;;5.84;74.15
22181;BME280;11256;50.830;12.834;2023-12-20T02:47:29;97127.75;;;5.87;73.98
22181;BME280;11256;50.830;12.834;2023-12-20T02:52:30;97113.19;;;5.83;74.07
22181;BME280;11256;50.830;12.834;2023-12-20T02:57:30;97123.16;;;5.88;74.15
22181;BME280;11256;50.830;12.834;2023-12-20T03:02:30;97118.53;;;5.78;73.91
22181;BME280;11256;50.830;12.834;2023-12-20T03:07:31;97108.09;;;5.82;74.51
22181;BME280;11256;50.830;12.834;2023-12-20T03:12:31;97099.97;;;5.77;74.25
22181;BME280;11256;50.830;12.834;2023-12-20T03:17:31;97078.97;;;5.64;74.22
22181;BME280;11256;50.830;12.834;2023-12-20T03:22:32;97105.13;;;5.83;74.28
22181;BME280;11256;50.830;12.834;2023-12-20T03:27:32;97096.97;;;5.63;74.27
22181;BME280;11256;50.830;12.834;2023-12-20T03:32:32;97110.25;;;5.80;73.81
22181;BME280;11256;50.830;12.834;2023-12-20T03:37:33;97097.56;;;5.75;74.14
22181;BME280;11256;50.830;12.834;2023-12-20T03:42:33;97102.41;;;5.78;74.60
22181;BME280;11256;50.830;12.834;2023-12-20T03:47:33;97106.97;;;5.78;74.28
22181;BME280;11256;50.830;12.834;2023-12-20T03:52:34;97103.72;;;5.76;74.26
22181;BME280;11256;50.830;12.834;2023-12-20T03:57:34;97101.31;;;5.74;74.55
22181;BME280;11256;50.830;12.834;2023-12-20T04:02:34;97115.03;;;5.78;74.62
22181;BME280;11256;50.830;12.834;2023-12-20T04:07:35;97108.59;;;5.79;74.72
22181;BME280;11256;50.830;12.834;2023-12-20T04:12:35;97099.97;;;5.77;74.58
22181;BME280;11256;50.830;12.834;2023-12-20T04:17:36;97059.59;;;5.52;75.11
22181;BME280;11256;50.830;12.834;2023-12-20T04:22:36;97097.28;;;5.72;74.26
22181;BME280;11256;50.830;12.834;2023-12-20T04:27:36;97109.91;;;5.71;74.53
22181;BME280;11256;50.830;12.834;2023-12-20T04:32:37;97095.09;;;5.64;74.74
22181;BME280;11256;50.830;12.834;2023-12-20T04:37:37;97104.25;;;5.63;74.19
22181;BME280;11256;50.830;12.834;2023-12-20T04:42:37;97117.44;;;5.69;74.56
22181;BME280;11256;50.830;12.834;2023-12-20T04:47:38;97119.28;;;5.64;74.78
22181;BME280;11256;50.830;12.834;2023-12-20T04:52:38;97122.78;;;5.64;74.66
22181;BME280;11256;50.830;12.834;2023-12-20T04:57:38;97119.56;;;5.67;75.28
22181;BME280;11256;50.830;12.834;2023-12-20T05:02:39;97098.31;;;5.56;74.86
22181;BME280;11256;50.830;12.834;2023-12-20T05:07:39;97131.91;;;5.58;74.95
22181;BME280;11256;50.830;12.834;2023-12-20T05:12:39;97125.19;;;5.66;75.25
22181;BME280;11256;50.830;12.834;2023-12-20T05:17:40;97132.44;;;5.60;74.88
22181;BME280;11256;50.830;12.834;2023-12-20T05:22:41;97113.59;;;5.55;74.46
22181;BME280;11256;50.830;12.834;2023-12-20T05:27:41;97126.78;;;5.57;75.18
22181;BME280;11256;50.830;12.834;2023-12-20T05:32:41;97137.53;;;5.57;74.83
22181;BME280;11256;50.830;12.834;2023-12-20T05:37:42;97126.50;;;5.53;75.13
22181;BME280;11256;50.830;12.834;2023-12-20T05:42:42;97138.31;;;5.57;74.99
22181;BME280;11256;50.830;12.834;2023-12-20T05:47:43;97147.47;;;5.56;75.35
22181;BME280;11256;50.830;12.834;2023-12-20T05:52:43;97151.50;;;5.59;75.12
22181;BME280;11256;50.830;12.834;2023-12-20T05:57:44;97164.44;;;5.62;75.55
22181;BME280;11256;50.830;12.834;2023-12-20T06:02:44;97151.22;;;5.55;75.54
22181;BME280;11256;50.830;12.834;2023-12-20T06:07:45;97163.88;;;5.60;75.22
22181;BME280;11256;50.830;12.834;2023-12-20T06:12:47;97163.88;;;5.60;74.73
22181;BME280;11256;50.830;12.834;2023-12-20T06:17:50;97170.56;;;5.57;75.14
22181;BME280;11256;50.830;12.834;2023-12-20T06:22:50;97176.78;;;5.63;75.44
22181;BME280;11256;50.830;12.834;2023-12-20T06:27:50;97162.78;;;5.56;74.99
22181;BME280;11256;50.830;12.834;2023-12-20T06:32:51;97187.78;;;5.61;75.13
22181;BME280;11256;50.830;12.834;2023-12-20T06:37:51;97172.44;;;5.52;75.75
22181;BME280;11256;50.830;12.834;2023-12-20T06:42:52;97186.69;;;5.57;75.77
22181;BME280;11256;50.830;12.834;2023-12-20T06:47:52;97190.22;;;5.63;75.82
22181;BME280;11256;50.830;12.834;2023-12-20T06:52:54;97194.50;;;5.59;75.10
22181;BME280;11256;50.830;12.834;2023-12-20T06:57:55;97198.78;;;5.55;75.12
22181;BME280;11256;50.830;12.834;2023-12-20T07:02:55;97212.84;;;5.67;75.48
22181;BME280;11256;50.830;12.834;2023-12-20T07:07:55;97203.09;;;5.56;75.13
22181;BME280;11256;50.830;12.834;2023-12-20T07:12:56;97203.63;;;5.58;75.71
22181;BME280;11256;50.830;12.834;2023-12-20T07:17:56;97200.91;;;5.53;75.42
22181;BME280;11256;50.830;12.834;2023-12-20T07:22:56;97197.13;;;5.49;75.73
22181;BME280;11256;50.830;12.834;2023-12-20T07:27:56;97206.28;;;5.53;75.11
22181;BME280;11256;50.830;12.834;2023-12-20T07:32:57;97218.66;;;5.54;75.57
22181;BME280;11256;50.830;12.834;2023-12-20T07:37:57;97208.19;;;5.57;76.10
22181;BME280;11256;50.830;12.834;2023-12-20T07:42:58;97222.19;;;5.59;76.14
22181;BME280;11256;50.830;12.834;2023-12-20T07:47:58;97208.72;;;5.54;75.53
22181;BME280;11256;50.830;12.834;2023-12-20T07:52:59;97213.28;;;5.54;75.70
22181;BME280;11256;50.830;12.834;2023-12-20T07:58:00;97223.53;;;5.57;75.45
22181;BME280;11256;50.830;12.834;2023-12-20T08:03:01;97224.84;;;5.54;75.50
22181;BME280;11256;50.830;12.834;2023-12-20T08:08:03;97228.63;;;5.63;75.47
22181;BME280;11256;50.830;12.834;2023-12-20T08:13:04;97220.88;;;5.62;75.69
22181;BME280;11256;50.830;12.834;2023-12-20T08:18:04;97214.41;;;5.63;76.02
22181;BME280;11256;50.830;12.834;2023-12-20T08:23:05;97218.78;;;5.74;76.18
22181;BME280;11256;50.830;12.834;2023-12-20T08:28:05;97240.28;;;5.74;76.80
22181;BME280;11256;50.830;12.834;2023-12-20T08:33:06;97230.84;;;5.71;76.33
22181;BME280;11256;50.830;12.834;2023-12-20T08:38:11;97232.75;;;5.76;76.42
22181;BME280;11256;50.830;12.834;2023-12-20T08:43:11;97248.38;;;5.79;76.07
22181;BME280;11256;50.830;12.834;2023-12-20T08:48:12;97225.25;;;5.78;76.15
22181;BME280;11256;50.830;12.834;2023-12-20T08:53:12;97234.44;;;5.87;75.83
22181;BME280;11256;50.830;12.834;2023-12-20T08:58:13;97239.31;;;5.90;76.34
22181;BME280;11256;50.830;12.834;2023-12-20T09:03:13;97236.25;;;6.28;78.52
22181;BME280;11256;50.830;12.834;2023-12-20T09:08:14;97234.75;;;7.17;78.51
22181;BME280;11256;50.830;12.834;2023-12-20T09:13:14;97256.00;;;7.83;75.94
22181;BME280;11256;50.830;12.834;2023-12-20T09:18:14;97235.13;;;8.14;73.81
22181;BME280;11256;50.830;12.834;2023-12-20T09:23:15;97233.38;;;8.43;72.13
22181;BME280;11256;50.830;12.834;2023-12-20T09:28:15;97240.97;;;8.41;71.55
22181;BME280;11256;50.830;12.834;2023-12-20T09:33:16;97230.56;;;8.09;71.33
22181;BME280;11256;50.830;12.834;2023-12-20T09:38:16;97240.56;;;7.94;70.86
22181;BME280;11256;50.830;12.834;2023-12-20T09:43:19;97225.00;;;7.71;71.53
22181;BME280;11256;50.830;12.834;2023-12-20T09:48:20;97241.19;;;7.56;71.82
22181;BME280;11256;50.830;12.834;2023-12-20T09:53:21;97234.75;;;7.47;72.21
22181;BME280;11256;50.830;12.834;2023-12-20T09:58:23;97222.38;;;7.31;72.23
22181;BME280;11256;50.830;12.834;2023-12-20T10:03:25;97222.91;;;7.23;72.19
22181;BME280;11256;50.830;12.834;2023-12-20T10:08:26;97207.81;;;7.07;72.55
22181;BME280;11256;50.830;12.834;2023-12-20T10:13:27;97197.59;;;7.04;72.74
22181;BME280;11256;50.830;12.834;2023-12-20T10:18:34;97194.91;;;6.99;73.30
22181;BME280;11256;50.830;12.834;2023-12-20T10:23:34;97176.56;;;6.86;73.34
22181;BME280;11256;50.830;12.834;2023-12-20T10:28:35;97184.13;;;6.84;73.80
22181;BME280;11256;50.830;12.834;2023-12-20T10:33:40;97173.34;;;6.79;73.38
22181;BME280;11256;50.830;12.834;2023-12-20T10:38:42;97182.25;;;6.89;74.02
22181;BME280;11256;50.830;12.834;2023-12-20T10:43:42;97172.84;;;6.82;74.56
22181;BME280;11256;50.830;12.834;2023-12-20T10:48:44;97149.69;;;6.81;74.34
22181;BME280;11256;50.830;12.834;2023-12-20T10:53:47;97150.19;;;6.73;73.98
22181;BME280;11256;50.830;12.834;2023-12-20T10:58:48;97149.94;;;6.74;74.99
22181;BME280;11256;50.830;12.834;2023-12-20T11:03:51;97141.59;;;6.76;75.43
22181;BME280;11256;50.830;12.834;2023-12-20T11:09:01;97152.91;;;6.83;75.56
22181;BME280;11256;50.830;12.834;2023-12-20T11:14:23;97154.25;;;6.85;75.37
22181;BME280;11256;50.830;12.834;2023-12-20T11:19:24;97133.53;;;6.81;74.89
22181;BME280;11256;50.830;12.834;2023-12-20T11:24:25;97136.19;;;6.86;74.99
22181;BME280;11256;50.830;12.834;2023-12-20T11:29:35;97146.44;;;6.89;75.44
22181;BME280;11256;50.830;12.834;2023-12-20T11:34:35;97155.84;;;6.91;75.25
22181;BME280;11256;50.830;12.834;2023-12-20T11:39:36;97148.03;;;6.95;74.83
22181;BME280;11256;50.830;12.834;2023-12-20T11:44:38;97131.88;;;7.00;74.75
22181;BME280;11256;50.830;12.834;2023-12-20T11:49:38;97122.72;;;6.91;74.54
22181;BME280;11256;50.830;12.834;2023-12-20T11:54:39;97121.63;;;6.97;74.33
22181;BME280;11256;50.830;12.834;2023-12-20T11:59:39;97115.19;;;7.03;74.81
22181;BME280;11256;50.830;12.834;2023-12-20T12:04:43;97114.09;;;7.09;74.94
22181;BME280;11256;50.830;12.834;2023-12-20T12:09:43;97116.78;;;7.14;74.68
22181;BME280;11256;50.830;12.834;2023-12-20T12:14:45;97099.53;;;7.10;74.58
22181;BME280;11256;50.830;12.834;2023-12-20T12:19:45;97088.75;;;7.15;74.77
22181;BME280;11256;50.830;12.834;2023-12-20T12:24:46;97079.03;;;7.24;74.93
22181;BME280;11256;50.830;12.834;2023-12-20T12:30:01;97067.69;;;7.32;74.85
22181;BME280;11256;50.830;12.834;2023-12-20T12:35:04;97059.84;;;7.35;75.00
22181;BME280;11256;50.830;12.834;2023-12-20T12:40:09;97060.13;;;7.39;74.71
22181;BME280;11256;50.830;12.834;2023-12-20T12:45:11;97031.53;;;7.43;74.05
22181;BME280;11256;50.830;12.834;2023-12-20T12:50:11;97030.44;;;7.44;74.25
22181;BME280;11256;50.830;12.834;2023-12-20T12:55:12;97002.72;;;7.43;73.56
22181;BME280;11256;50.830;12.834;2023-12-20T13:00:12;97015.59;;;7.51;73.63
22181;BME280;11256;50.830;12.834;2023-12-20T13:05:13;97007.53;;;7.46;73.45
22181;BME280;11256;50.830;12.834;2023-12-20T13:10:14;97014.28;;;7.44;73.54
22181;BME280;11256;50.830;12.834;2023-12-20T13:15:16;97009.47;;;7.41;73.05
22181;BME280;11256;50.830;12.834;2023-12-20T13:20:17;96993.78;;;7.48;73.76
22181;BME280;11256;50.830;12.834;2023-12-20T13:25:17;96964.47;;;7.36;74.13
22181;BME280;11256;50.830;12.834;2023-12-20T13:30:17;96989.94;;;7.59;74.31
22181;BME280;11256;50.830;12.834;2023-12-20T13:35:18;96979.69;;;7.61;74.74
22181;BME280;11256;50.830;12.834;2023-12-20T13:40:19;96953.81;;;7.60;73.87
22181;BME280;11256;50.830;12.834;2023-12-20T13:45:19;96966.97;;;7.71;75.05
22181;BME280;11256;50.830;12.834;2023-12-20T13:50:20;96951.81;;;7.75;75.16
22181;BME280;11256;50.830;12.834;2023-12-20T13:55:20;96961.25;;;7.73;74.96
22181;BME280;11256;50.830;12.834;2023-12-20T14:00:28;96962.91;;;7.74;73.43
22181;BME280;11256;50.830;12.834;2023-12-20T14:05:29;96965.88;;;7.72;73.84
22181;BME280;11256;50.830;12.834;2023-12-20T14:10:29;96975.22;;;7.85;73.66
22181;BME280;11256;50.830;12.834;2023-12-20T14:15:30;96972.59;;;7.75;72.74
22181;BME280;11256;50.830;12.834;2023-12-20T14:20:30;96968.88;;;7.66;73.11
22181;BME280;11256;50.830;12.834;2023-12-20T14:25:31;96974.81;;;7.68;72.84
22181;BME280;11256;50.830;12.834;2023-12-20T14:30:31;96976.09;;;7.70;72.23
22181;BME280;11256;50.830;12.834;2023-12-20T14:35:32;96957.53;;;7.69;72.10
22181;BME280;11256;50.830;12.834;2023-12-20T14:40:32;96976.38;;;7.74;71.70
22181;BME280;11256;50.830;12.834;2023-12-20T14:45:33;96972.91;;;7.68;71.28
22181;BME280;11256;50.830;12.834;2023-12-20T14:50:33;96944.72;;;7.46;71.37
22181;BME280;11256;50.830;12.834;2023-12-20T14:55:34;96958.19;;;7.46;70.92
22181;BME280;11256;50.830;12.834;2023-12-20T15:00:35;96963.66;;;7.41;71.04
22181;BME280;11256;50.830;12.834;2023-12-20T15:05:35;96969.56;;;7.43;70.76
22181;BME280;11256;50.830;12.834;2023-12-20T15:10:37;96979.81;;;7.41;70.37
22181;BME280;11256;50.830;12.834;2023-12-20T15:15:37;96968.00;;;7.27;70.67
22181;BME280;11256;50.830;12.834;2023-12-20T15:20:37;96976.63;;;7.24;70.85
22181;BME280;11256;50.830;12.834;2023-12-20T15:25:38;96982.59;;;7.21;70.74
22181;BME280;11256;50.830;12.834;2023-12-20T15:30:38;96974.03;;;7.09;70.56
22181;BME280;11256;50.830;12.834;2023-12-20T15:35:38;96956.81;;;7.00;70.54
22181;BME280;11256;50.830;12.834;2023-12-20T15:40:39;96966.00;;;6.89;71.01
22181;BME280;11256;50.830;12.834;2023-12-20T15:45:39;96954.16;;;6.90;71.00
22181;BME280;11256;50.830;12.834;2023-12-20T15:50:40;96932.66;;;6.75;70.61
22181;BME280;11256;50.830;12.834;2023-12-20T15:55:40;96962.56;;;6.78;70.70
22181;BME280;11256;50.830;12.834;2023-12-20T16:00:41;96946.69;;;6.77;70.74
22181;BME280;11256;50.830;12.834;2023-12-20T16:05:42;96947.22;;;6.69;70.88
22181;BME280;11256;50.830;12.834;2023-12-20T16:10:42;96941.34;;;6.62;71.03
22181;BME280;11256;50.830;12.834;2023-12-20T16:15:42;96958.56;;;6.56;70.96
22181;BME280;11256;50.830;12.834;2023-12-20T16:20:43;96975.50;;;6.61;71.01
22181;BME280;11256;50.830;12.834;2023-12-20T16:25:43;96972.03;;;6.51;71.19
22181;BME280;11256;50.830;12.834;2023-12-20T16:30:43;96953.22;;;6.46;71.27
22181;BME280;11256;50.830;12.834;2023-12-20T16:35:44;96957.50;;;6.57;71.02
22181;BME280;11256;50.830;12.834;2023-12-20T16:40:44;96930.91;;;6.35;71.15
22181;BME280;11256;50.830;12.834;2023-12-20T16:45:45;96968.78;;;6.59;71.16
22181;BME280;11256;50.830;12.834;2023-12-20T16:50:45;96961.81;;;6.48;71.16
22181;BME280;11256;50.830;12.834;2023-12-20T16:55:46;96953.22;;;6.36;71.22
22181;BME280;11256;50.830;12.834;2023-12-20T17:00:46;96971.25;;;6.45;71.44
22181;BME280;11256;50.830;12.834;2023-12-20T17:05:47;96963.97;;;6.46;71.43
22181;BME280;11256;50.830;12.834;2023-12-20T17:10:47;96966.13;;;6.44;71.35
22181;BME280;11256;50.830;12.834;2023-12-20T17:15:48;96961.84;;;6.38;71.60
22181;BME280;11256;50.830;12.834;2023-12-20T17:20:48;96960.75;;;6.44;71.83
22181;BME280;11256;50.830;12.834;2023-12-20T17:25:48;96933.88;;;6.29;71.73
22181;BME280;11256;50.830;12.834;2023-12-20T17:30:49;96903.22;;;6.15;72.18
22181;BME280;11256;50.830;12.834;2023-12-20T17:35:49;96967.75;;;6.40;72.36
22181;BME280;11256;50.830;12.834;2023-12-20T17:40:49;96964.53;;;6.33;72.36
22181;BME280;11256;50.830;12.834;2023-12-20T17:45:50;96969.94;;;6.28;72.52
22181;BME280;11256;50.830;12.834;2023-12-20T17:50:50;96970.47;;;6.30;72.34
22181;BME280;11256;50.830;12.834;2023-12-20T17:55:50;96969.94;;;6.33;72.81
22181;BME280;11256;50.830;12.834;2023-12-20T18:00:51;96957.00;;;6.25;73.08
22181;BME280;11256;50.830;12.834;2023-12-20T18:05:51;96967.75;;;6.30;72.86
22181;BME280;11256;50.830;12.834;2023-12-20T18:10:52;96979.59;;;6.34;72.74
22181;BME280;11256;50.830;12.834;2023-12-20T18:15:52;96976.91;;;6.24;72.96
22181;BME280;11256;50.830;12.834;2023-12-20T18:20:53;96986.06;;;6.23;72.60
22181;BME280;11256;50.830;12.834;2023-12-20T18:25:54;96975.31;;;6.13;72.74
22181;BME280;11256;50.830;12.834;2023-12-20T18:30:55;96967.81;;;6.05;72.80
22181;BME280;11256;50.830;12.834;2023-12-20T18:35:56;96980.94;;;6.16;72.80
22181;BME280;11256;50.830;12.834;2023-12-20T18:40:56;96948.97;;;6.00;72.91
22181;BME280;11256;50.830;12.834;2023-12-20T18:45:57;96968.06;;;6.08;72.88
22181;BME280;11256;50.830;12.834;2023-12-20T18:50:57;96982.84;;;6.11;73.00
22181;BME280;11256;50.830;12.834;2023-12-20T18:55:57;96984.97;;;6.14;73.11
22181;BME280;11256;50.830;12.834;2023-12-20T19:00:58;96960.78;;;5.99;73.12
22181;BME280;11256;50.830;12.834;2023-12-20T19:06:00;96970.19;;;6.06;73.36
22181;BME280;11256;50.830;12.834;2023-12-20T19:11:05;96963.47;;;6.09;72.74
22181;BME280;11256;50.830;12.834;2023-12-20T19:16:05;96941.44;;;5.92;72.99
22181;BME280;11256;50.830;12.834;2023-12-20T19:21:06;96947.06;;;6.05;73.26
22181;BME280;11256;50.830;12.834;2023-12-20T19:26:11;96964.81;;;6.16;73.32
22181;BME280;11256;50.830;12.834;2023-12-20T19:31:13;96939.28;;;6.09;72.99
22181;BME280;11256;50.830;12.834;2023-12-20T19:36:14;96950.59;;;6.11;73.10
22181;BME280;11256;50.830;12.834;2023-12-20T19:41:14;96943.59;;;6.05;72.93
22181;BME280;11256;50.830;12.834;2023-12-20T19:46:16;96957.84;;;6.05;73.67
22181;BME280;11256;50.830;12.834;2023-12-20T19:51:16;96937.66;;;6.03;73.43
22181;BME280;11256;50.830;12.834;2023-12-20T19:56:17;96920.44;;;5.99;73.26
22181;BME280;11256;50.830;12.834;2023-12-20T20:01:17;96938.47;;;6.03;73.70
22181;BME280;11256;50.830;12.834;2023-12-20T20:06:17;96911.84;;;5.97;73.41
22181;BME280;11256;50.830;12.834;2023-12-20T20:11:21;96904.88;;;5.96;73.87
22181;BME280;11256;50.830;12.834;2023-12-20T20:16:22;96889.31;;;5.83;73.55
22181;BME280;11256;50.830;12.834;2023-12-20T20:21:22;96886.06;;;5.86;73.76
22181;BME280;11256;50.830;12.834;2023-12-20T20:26:23;96878.56;;;5.83;73.70
22181;BME280;11256;50.830;12.834;2023-12-20T20:31:24;96875.31;;;5.81;73.70
22181;BME280;11256;50.830;12.834;2023-12-20T20:36:24;96900.59;;;5.80;73.84
22181;BME280;11256;50.830;12.834;2023-12-20T20:41:25;96896.81;;;5.81;73.59
22181;BME280;11256;50.830;12.834;2023-12-20T20:46:25;96886.03;;;5.66;74.58
22181;BME280;11256;50.830;12.834;2023-12-20T20:51:26;96882.28;;;5.72;74.45
22181;BME280;11256;50.830;12.834;2023-12-20T20:56:27;96863.47;;;5.67;74.24
22181;BME280;11256;50.830;12.834;2023-12-20T21:01:28;96872.06;;;5.79;74.13
22181;BME280;11256;50.830;12.834;2023-12-20T21:06:29;96870.47;;;5.73;74.68
22181;BME280;11256;50.830;12.834;2023-12-20T21:11:33;96870.47;;;5.63;75.00
22181;BME280;11256;50.830;12.834;2023-12-20T21:16:34;96843.03;;;5.61;74.99
22181;BME280;11256;50.830;12.834;2023-12-20T21:21:34;96817.81;;;5.62;74.99
22181;BME280;11256;50.830;12.834;2023-12-20T21:26:35;96818.59;;;5.57;75.01
22181;BME280;11256;50.830;12.834;2023-12-20T21:31:35;96815.63;;;5.69;74.82
22181;BME280;11256;50.830;12.834;2023-12-20T21:36:36;96807.84;;;5.62;74.31
22181;BME280;11256;50.830;12.834;2023-12-20T21:41:36;96796.31;;;5.62;74.94
22181;BME280;11256;50.830;12.834;2023-12-20T21:46:36;96785.56;;;5.52;75.08
22181;BME280;11256;50.830;12.834;2023-12-20T21:51:37;96790.94;;;5.67;75.01
22181;BME280;11256;50.830;12.834;2023-12-20T21:56:37;96764.59;;;5.59;75.01
22181;BME280;11256;50.830;12.834;2023-12-20T22:01:40;96773.16;;;5.71;75.20
22181;BME280;11256;50.830;12.834;2023-12-20T22:06:41;96769.97;;;5.64;75.60
22181;BME280;11256;50.830;12.834;2023-12-20T22:11:42;96758.38;;;5.68;75.05
22181;BME280;11256;50.830;12.834;2023-12-20T22:16:42;96745.78;;;5.69;75.95
22181;BME280;11256;50.830;12.834;2023-12-20T22:21:42;96769.44;;;5.67;76.50
22181;BME280;11256;50.830;12.834;2023-12-20T22:26:43;96744.69;;;5.70;76.50
22181;BME280;11256;50.830;12.834;2023-12-20T22:31:43;96743.59;;;5.76;75.58
22181;BME280;11256;50.830;12.834;2023-12-20T22:36:43;96710.59;;;5.65;76.49
22181;BME280;11256;50.830;12.834;2023-12-20T22:41:44;96696.88;;;5.67;76.34
22181;BME280;11256;50.830;12.834;2023-12-20T22:46:44;96670.53;;;5.64;76.98
22181;BME280;11256;50.830;12.834;2023-12-20T22:51:44;96667.56;;;5.70;76.48
22181;BME280;11256;50.830;12.834;2023-12-20T22:56:45;96665.13;;;5.74;76.55
22181;BME280;11256;50.830;12.834;2023-12-20T23:01:52;96646.88;;;5.66;76.75
22181;BME280;11256;50.830;12.834;2023-12-20T23:06:53;96647.38;;;5.78;77.20
22181;BME280;11256;50.830;12.834;2023-12-20T23:11:53;96632.38;;;5.72;77.85
22181;BME280;11256;50.830;12.834;2023-12-20T23:16:54;96626.44;;;5.80;77.17
22181;BME280;11256;50.830;12.834;2023-12-20T23:21:54;96597.38;;;5.77;77.03
22181;BME280;11256;50.830;12.834;2023-12-20T23:26:56;96604.94;;;5.80;77.55
22181;BME280;11256;50.830;12.834;2023-12-20T23:31:57;96596.88;;;5.75;78.07
22181;BME280;11256;50.830;12.834;2023-12-20T23:36:57;96575.97;;;5.67;78.44
22181;BME280;11256;50.830;12.834;2023-12-20T23:41:57;96567.34;;;5.70;78.18
22181;BME280;11256;50.830;12.834;2023-12-20T23:46:58;96524.41;;;5.60;78.40
22181;BME280;11256;50.830;12.834;2023-12-20T23:51:58;96545.84;;;5.70;79.40
22181;BME280;11256;50.830;12.834;2023-12-20T23:56:58;96547.44;;;5.71;79.21
